Latest Weather Observations for Wudinna Airport

IDS60801

Issued at 8:35 pm CST Tuesday 16 September 2014 (issued every 30 minutes, with the page automatically refreshed every 10 minutes)

About weather observations | Map of weather stations | Latest weather observations for SA | Other Formats
Station Details ID: 018083 Name: WUDINNA AERO Lat: -33.04 Lon: 135.45 Height: 86.4 m
Data from the previous 72 hours. | See also: Recent months at Wudinna Airport
Date/Time
CST
Temp
°C
App
Temp
°C
Dew
Point
Rel
Hum
%
Delta-T
°C
Wind Press
QNH
hPa
Press
MSL
hPa
Rain
since 9 am
mm
Dir
 
Spd
km/h
Gust
km/h
Spd
kts
Gust
kts
16/08:30pm 12.3 9.8 8.0 75 2.1 SSW 11 15 6 8 1021.6 - 0.0
16/08:00pm 12.1 9.5 7.8 75 2.1 SSW 11 13 6 7 1021.5 - 0.0
16/07:30pm 12.3 8.5 7.6 73 2.3 SW 17 20 9 11 1021.4 - 0.0
16/07:00pm 12.6 9.1 7.1 69 2.7 WSW 15 20 8 11 1020.8 - 0.0
16/06:30pm 13.2 8.9 6.8 65 3.1 WSW 19 24 10 13 1020.2 - 0.0
16/06:00pm 14.4 9.5 6.7 60 3.7 SW 22 28 12 15 1019.6 1019.6 0.0
16/05:30pm 15.9 10.7 7.4 57 4.2 SW 24 32 13 17 1019.1 - 0.0
16/05:00pm 16.9 11.9 8.1 56 4.5 SW 24 35 13 19 1018.6 - 0.0
16/04:30pm 17.7 11.4 7.4 51 5.2 SW 30 39 16 21 1018.4 - 0.0
16/04:00pm 18.1 12.4 5.0 42 6.3 SW 24 33 13 18 1018.2 - 0.0
16/03:30pm 20.0 14.8 3.3 33 7.9 SW 20 28 11 15 1018.0 - 0.0
16/03:00pm 20.0 13.0 4.1 35 7.6 SSW 30 39 16 21 1017.8 1017.8 0.0
16/02:30pm 21.3 15.4 1.6 27 9.1 WSW 22 33 12 18 1018.0 - 0.0
16/02:00pm 21.0 14.7 1.8 28 8.9 W 24 32 13 17 1018.2 - 0.0
16/01:30pm 18.8 13.4 1.3 31 7.9 WSW 19 28 10 15 1018.5 - 0.0
16/01:00pm 19.8 15.1 3.1 33 7.9 WSW 17 28 9 15 1018.9 - 0.0
16/12:30pm 19.0 14.1 2.0 32 7.8 SW 17 30 9 16 1019.3 - 0.0
16/12:00pm 18.4 13.6 2.7 35 7.2 W 17 28 9 15 1019.9 1019.8 0.0
16/11:30am 17.3 12.2 4.3 42 6.2 WSW 20 28 11 15 1020.4 - 0.0
16/11:00am 17.8 12.6 2.2 35 7.1 W 19 32 10 17 1020.7 - 0.0
16/10:30am 16.4 13.0 4.1 44 5.8 SSW 11 17 6 9 1021.0 - 0.0
16/10:00am 15.9 13.0 6.6 54 4.6 SSW 11 17 6 9 1021.2 - 0.0
16/09:30am 14.8 12.2 7.6 62 3.6 SW 11 15 6 8 1021.3 - 0.0
16/09:00am 13.9 11.6 8.9 72 2.5 SW 11 19 6 10 1021.3 1021.2 0.0
16/08:30am 12.2 10.5 8.3 77 1.9 SW 7 11 4 6 1021.4 - 0.0
16/08:00am 10.5 9.2 9.1 91 0.7 WNW 6 9 3 5 1021.1 - 0.0
16/07:30am 8.1 6.1 7.3 95 0.4 NW 7 9 4 5 1020.9 - 0.0
16/07:00am 5.1 2.6 4.5 96 0.3 NNW 7 9 4 5 1020.6 - 0.0
16/06:30am 4.4 1.3 3.7 95 0.3 NNW 9 11 5 6 1020.5 - 0.0
16/06:00am 4.8 1.4 3.9 94 0.4 NW 11 13 6 7 1020.4 1020.3 0.0
16/05:30am 5.7 2.5 5.0 95 0.3 NW 11 13 6 7 1020.1 - 0.0
16/05:00am 5.5 2.2 4.8 95 0.3 NW 11 13 6 7 1020.1 - 0.0
16/04:30am 5.5 3.0 4.8 95 0.3 NW 7 9 4 5 1020.0 - 0.0
16/04:00am 5.8 3.0 5.1 95 0.3 NW 9 13 5 7 1019.8 - 0.0
16/03:30am 5.9 3.1 5.2 95 0.3 NW 9 11 5 6 1019.8 - 0.0
16/03:00am 5.1 2.1 4.2 94 0.4 NW 9 11 5 6 1019.9 1019.8 0.0
16/02:30am 6.5 4.2 5.6 94 0.4 NNW 7 11 4 6 1019.9 - 0.0
16/02:00am 6.2 4.4 5.2 93 0.4 NNW 4 7 2 4 1020.0 - 0.0
16/01:30am 7.3 5.1 6.2 93 0.5 NNW 7 9 4 5 1020.1 - 0.0
16/01:00am 7.1 5.0 5.9 92 0.5 NNW 6 7 3 4 1020.4 - 0.0
16/12:30am 7.8 4.9 6.6 92 0.6 NW 11 13 6 7 1020.5 - 0.0
16/12:00am 7.7 5.5 6.3 91 0.6 NNW 7 9 4 5 1020.6 1020.5 0.0
 
Date/Time
CST
Temp
°C
App
Temp
°C
Dew
Point
Rel
Hum
%
Delta-T
°C
Wind Press
QNH
hPa
Press
MSL
hPa
Rain
since 9 am
mm
Dir
 
Spd
km/h
Gust
km/h
Spd
kts
Gust
kts
15/11:30pm 9.0 6.7 7.3 89 0.8 WSW 9 11 5 6 1020.5 - 0.0
15/11:00pm 9.7 6.4 8.0 89 0.8 WSW 15 17 8 9 1020.7 - 0.0
15/10:30pm 9.9 6.9 7.8 87 1.0 W 13 15 7 8 1020.9 - 0.0
15/10:00pm 11.0 7.9 8.8 86 1.1 WSW 15 19 8 10 1021.2 - 0.0
15/09:30pm 10.9 7.3 8.5 85 1.2 WSW 17 20 9 11 1021.1 - 0.0
15/09:00pm 11.6 8.1 8.8 83 1.4 W 17 20 9 11 1021.0 1020.9 0.0
15/08:30pm 10.7 7.5 8.5 86 1.1 WSW 15 17 8 9 1020.7 - 0.0
15/08:00pm 10.9 8.0 8.1 83 1.4 WSW 13 15 7 8 1020.6 - 0.0
15/07:30pm 12.5 9.7 8.6 77 1.9 SW 13 17 7 9 1020.1 - 0.0
15/07:00pm 12.5 9.0 8.6 77 1.9 SW 17 20 9 11 1019.8 - 0.0
15/06:30pm 13.1 9.8 8.2 72 2.4 SW 15 19 8 10 1019.5 - 0.0
15/06:00pm 14.3 10.0 8.0 66 3.1 SW 20 26 11 14 1019.2 1019.2 0.0
15/05:30pm 15.4 10.4 7.9 61 3.8 SW 24 32 13 17 1018.9 - 0.0
15/05:00pm 16.3 9.5 7.0 54 4.6 SW 32 43 17 23 1018.6 - 0.0
15/04:30pm 17.3 10.3 6.2 48 5.5 SW 32 41 17 22 1018.3 - 0.0
15/04:00pm 17.8 10.9 6.3 47 5.7 SW 32 41 17 22 1018.2 - 0.0
15/03:30pm 18.8 12.3 6.6 45 6.1 SSW 30 44 16 24 1017.9 - 0.0
15/03:00pm 19.2 12.4 7.6 47 5.9 SSW 33 46 18 25 1017.9 1017.9 0.0
15/02:30pm 19.2 12.2 6.7 44 6.3 SW 33 48 18 26 1017.8 - 0.0
15/02:04pm 20.0 13.7 7.4 44 6.5 SW 30 48 16 26 1017.8 - 0.0
15/02:00pm 20.3 13.6 7.3 43 6.7 SSW 32 44 17 24 1017.8 - 0.0
15/01:30pm 20.5 14.4 8.2 45 6.4 SW 30 43 16 23 1018.0 - 0.0
15/01:00pm 20.0 12.8 7.7 45 6.3 SW 35 44 19 24 1018.2 - 0.0
15/12:39pm 19.6 13.7 7.7 46 6.1 SW 28 46 15 25 1018.2 - 0.0
15/12:30pm 19.3 12.8 8.0 48 5.8 SW 32 44 17 24 1018.3 - 0.0
15/12:00pm 19.0 12.9 8.1 49 5.6 SW 30 41 16 22 1018.5 1018.5 0.0
15/11:30am 18.8 12.4 8.5 51 5.4 SW 32 41 17 22 1018.6 - 0.0
15/11:00am 18.0 12.3 8.3 53 5.0 SW 28 39 15 21 1018.6 - 0.0
15/10:30am 18.5 12.1 8.7 53 5.1 SSW 32 43 17 23 1018.7 - 0.0
15/10:00am 18.0 12.5 9.1 56 4.7 SW 28 37 15 20 1018.7 - 0.0
15/09:30am 16.3 10.4 9.0 62 3.8 SW 30 37 16 20 1018.6 - 0.0
15/09:00am 15.6 9.8 9.5 67 3.2 SSW 30 41 16 22 1018.4 1018.4 0.0
15/08:30am 15.0 10.4 9.6 70 2.8 SW 24 35 13 19 1018.1 - 0.0
15/08:00am 14.7 10.2 9.9 73 2.5 SW 24 35 13 19 1017.9 - 0.0
15/07:30am 14.1 9.8 9.5 74 2.4 SW 22 30 12 16 1017.5 - 0.0
15/07:00am 13.7 9.1 9.7 77 2.1 SW 24 32 13 17 1017.2 - 0.0
15/06:30am 13.9 9.6 9.5 75 2.3 SW 22 30 12 16 1016.7 - 0.0
15/06:00am 14.1 9.1 9.7 75 2.3 SW 26 35 14 19 1016.3 1016.3 0.0
15/05:30am 14.0 9.8 9.8 76 2.2 SW 22 30 12 16 1015.8 - 0.0
15/05:00am 14.2 9.3 9.8 75 2.3 SW 26 39 14 21 1015.4 - 0.0
15/04:30am 13.9 8.8 10.7 81 1.7 SW 28 33 15 18 1014.9 - 0.0
15/04:00am 14.4 8.8 11.4 82 1.6 SW 32 46 17 25 1014.4 - 0.0
15/03:30am 14.7 9.1 11.5 81 1.7 WSW 32 44 17 24 1013.9 - 0.0
15/03:00am 14.6 9.9 11.9 84 1.5 WSW 28 37 15 20 1013.8 1013.7 0.0
15/02:30am 14.6 9.4 11.7 83 1.6 W 30 41 16 22 1013.5 - 0.0
15/02:01am 14.7 9.6 11.8 83 1.6 W 30 48 16 26 1013.4 - 0.0
15/02:00am 14.7 9.6 11.8 83 1.6 W 30 44 16 24 1013.5 - 0.0
15/01:30am 14.9 10.1 11.7 81 1.7 W 28 39 15 21 1013.5 - 0.0
15/01:00am 14.8 10.2 11.2 79 1.9 W 26 37 14 20 1013.5 - 0.0
15/12:30am 14.8 9.7 10.6 76 2.2 W 28 41 15 22 1013.6 - 0.0
15/12:00am 15.0 9.5 10.4 74 2.4 W 30 41 16 22 1013.9 1013.8 0.0
 
Date/Time
CST
Temp
°C
App
Temp
°C
Dew
Point
Rel
Hum
%
Delta-T
°C
Wind Press
QNH
hPa
Press
MSL
hPa
Rain
since 9 am
mm
Dir
 
Spd
km/h
Gust
km/h
Spd
kts
Gust
kts
14/11:39pm 15.2 10.2 10.8 75 2.3 W 28 46 15 25 1013.9 - 0.0
14/11:30pm 15.2 10.9 10.8 75 2.3 W 24 33 13 18 1014.0 - 0.0
14/11:00pm 15.0 11.0 10.4 74 2.4 WNW 22 30 12 16 1014.1 - 0.0
14/10:30pm 14.6 10.6 10.4 76 2.2 NW 22 32 12 17 1014.4 - 0.0
14/10:00pm 14.3 10.4 10.7 79 1.9 NW 22 30 12 16 1014.7 - 0.0
14/09:30pm 14.0 11.0 10.6 80 1.8 NW 17 24 9 13 1014.8 - 0.0
14/09:00pm 13.7 9.9 9.9 78 2.0 WNW 20 28 11 15 1015.1 1015.0 0.0
14/08:30pm 13.9 9.7 9.9 77 2.1 WNW 22 30 12 16 1015.1 - 0.0
14/08:00pm 14.0 10.1 9.4 74 2.4 WNW 20 28 11 15 1014.9 - 0.0
14/07:30pm 14.2 9.7 8.6 69 2.8 WNW 22 32 12 17 1014.7 - 0.0
14/07:00pm 14.9 9.3 7.2 60 3.8 WNW 26 41 14 22 1014.3 - 0.0
14/06:30pm 15.9 11.4 8.6 62 3.7 W 22 32 12 17 1014.0 - 0.0
14/06:00pm 18.0 11.2 4.9 42 6.3 WNW 30 37 16 20 1013.6 1013.5 0.0
14/05:30pm 19.5 14.8 9.1 51 5.5 W 24 35 13 19 1012.8 - 0.0
14/05:00pm 21.0 14.7 8.9 46 6.4 W 32 44 17 24 1012.0 - 0.0
14/04:30pm 22.6 15.0 7.6 38 7.8 W 37 48 20 26 1011.8 - 0.0
14/04:00pm 24.1 16.5 7.7 35 8.7 W 37 48 20 26 1011.4 - 0.0
14/03:30pm 26.5 17.8 6.0 27 10.7 W 41 57 22 31 1011.2 - 0.0
14/03:29pm 26.5 18.2 6.0 27 10.7 W 39 57 21 31 1011.2 - 0.0
14/03:00pm 28.8 20.0 1.3 17 13.4 W 37 54 20 29 1010.8 1010.7 0.0
14/02:33pm 30.0 20.9 -0.4 14 14.5 W 37 54 20 29 1010.7 - 0.0
14/02:30pm 30.6 20.9 -2.0 12 15.2 NW 39 54 21 29 1010.6 - 0.0
14/02:10pm 31.2 22.4 -1.5 12 15.4 NW 35 54 19 29 1010.7 - 0.0
14/02:00pm 30.8 21.5 -1.9 12 15.3 NNW 37 54 20 29 1010.8 - 0.0
14/01:30pm 30.0 20.4 -1.4 13 14.7 NNW 39 61 21 33 1011.4 - 0.0
14/01:01pm 29.7 19.3 -1.6 13 14.6 NW 43 61 23 33 1011.9 - 0.0
14/01:00pm 29.6 19.2 -1.7 13 14.5 NW 43 56 23 30 1011.9 - 0.0
14/12:34pm 29.7 18.8 -1.6 13 14.6 NNW 46 65 25 35 1012.4 - 0.0
14/12:30pm 29.3 17.2 -1.9 13 14.4 NNW 52 65 28 35 1012.4 - 0.0
14/12:10pm 29.8 21.5 -0.5 14 14.4 N 33 52 18 28 1012.7 - 0.0
14/12:00pm 29.0 19.4 -1.2 14 14.1 N 39 54 21 29 1012.9 1012.8 0.0
14/11:30am 28.3 19.2 -0.8 15 13.6 N 37 57 20 31 1013.5 - 0.0
14/11:04am 28.0 19.0 -0.1 16 13.3 N 37 56 20 30 1014.1 - 0.0
14/11:00am 27.8 18.4 -0.3 16 13.2 N 39 54 21 29 1014.1 - 0.0
14/10:30am 26.7 17.3 -0.3 17 12.6 N 39 56 21 30 1014.6 - 0.0
14/10:24am 26.6 17.5 -0.4 17 12.5 N 37 56 20 30 1014.7 - 0.0
14/10:00am 26.0 17.8 0.6 19 12.0 N 33 48 18 26 1015.2 - 0.0
14/09:38am 24.8 16.6 0.3 20 11.4 N 33 54 18 29 1015.7 - 0.0
14/09:30am 24.8 17.8 1.7 22 11.0 N 28 43 15 23 1015.8 - 0.0
14/09:00am 22.7 14.9 1.7 25 9.8 N 32 46 17 25 1015.6 1015.6 0.0
14/08:30am 21.1 13.3 1.4 27 9.1 N 32 44 17 24 1015.4 - 0.0
14/08:00am 18.9 10.9 1.4 31 7.9 N 33 46 18 25 1015.3 - 0.0
14/07:30am 18.7 10.9 1.7 32 7.7 N 32 44 17 24 1015.2 - 0.0
14/07:00am 17.6 10.2 1.6 34 7.2 N 30 39 16 21 1015.1 - 0.0
14/06:30am 16.3 10.9 2.3 39 6.3 N 20 30 11 16 1015.1 - 0.0
14/06:00am 12.7 8.8 3.4 53 4.2 NE 13 17 7 9 1015.2 1015.1 0.0
14/05:30am 13.4 8.3 3.2 50 4.6 NE 19 24 10 13 1015.1 - 0.0
14/05:00am 14.0 8.9 3.2 48 4.9 NE 19 26 10 14 1015.1 - 0.0
14/04:30am 14.9 10.2 3.1 45 5.3 NNE 17 24 9 13 1015.1 - 0.0
14/04:00am 14.8 10.5 3.3 46 5.2 NNE 15 22 8 12 1015.2 - 0.0
14/03:30am 15.3 10.1 3.5 45 5.4 NNE 20 26 11 14 1015.5 - 0.0
14/03:00am 15.5 10.4 4.2 47 5.3 NNE 20 26 11 14 1015.7 1015.7 0.0
14/02:30am 13.6 9.0 5.5 58 3.8 NNE 19 22 10 12 1015.9 - 0.0
14/02:00am 13.9 10.5 5.8 58 3.9 NE 13 17 7 9 1016.4 - 0.0
14/01:30am 13.6 9.8 6.0 60 3.6 NE 15 17 8 9 1016.7 - 0.0
14/01:00am 15.0 11.2 6.0 55 4.3 NE 15 19 8 10 1017.2 - 0.0
14/12:30am 13.9 10.4 7.4 65 3.2 NNE 15 19 8 10 1017.7 - 0.0
14/12:00am 12.5 10.0 8.2 75 2.1 NNE 11 15 6 8 1018.2 1018.2 0.0
 
Date/Time
CST
Temp
°C
App
Temp
°C
Dew
Point
Rel
Hum
%
Delta-T
°C
Wind Press
QNH
hPa
Press
MSL
hPa
Rain
since 9 am
mm
Dir
 
Spd
km/h
Gust
km/h
Spd
kts
Gust
kts
13/11:30pm 10.9 8.9 7.0 77 1.9 NE 7 11 4 6 1018.6 - 0.0
13/11:00pm 11.1 9.4 7.4 78 1.8 E 6 7 3 4 1019.3 - 0.0
13/10:30pm 12.8 11.0 8.1 73 2.3 E 7 9 4 5 1019.6 - 0.0
13/10:00pm 12.8 11.3 8.5 75 2.1 E 6 9 3 5 1020.1 - 0.0
13/09:30pm 13.4 11.7 8.3 71 2.5 SW 7 9 4 5 1020.5 - 0.0
13/09:00pm 14.7 12.4 8.9 68 3.0 NE 11 17 6 9 1020.2 1020.1 0.0

Other Formats:

Comma delimited format used in spreadsheet applications
http://www.bom.gov.au/fwo/IDS60801/IDS60801.95654.axf

JavaScript Object Notation format (JSON) in row-major order
http://www.bom.gov.au/fwo/IDS60801/IDS60801.95654.json